sensor_id;sensor_type;location;lat;lon;timestamp;temperature;humidity
13600;DHT22;6871;51.34740610;4.31323160;2024-01-27T00:00:36;14.60;86.40
13600;DHT22;6871;51.34740610;4.31323160;2024-01-27T00:03:05;14.60;86.60
13600;DHT22;6871;51.34740610;4.31323160;2024-01-27T00:05:35;14.60;86.60
13600;DHT22;6871;51.34740610;4.31323160;2024-01-27T00:08:04;14.60;86.60
13600;DHT22;6871;51.34740610;4.31323160;2024-01-27T00:10:34;14.60;86.60
13600;DHT22;6871;51.34740610;4.31323160;2024-01-27T00:13:03;14.50;86.60
13600;DHT22;6871;51.34740610;4.31323160;2024-01-27T00:15:33;14.60;86.60
13600;DHT22;6871;51.34740610;4.31323160;2024-01-27T00:18:03;14.50;86.60
13600;DHT22;6871;51.34740610;4.31323160;2024-01-27T00:20:32;14.50;86.60
13600;DHT22;6871;51.34740610;4.31323160;2024-01-27T00:23:01;14.50;86.60
13600;DHT22;6871;51.34740610;4.31323160;2024-01-27T00:25:30;14.50;86.60
13600;DHT22;6871;51.34740610;4.31323160;2024-01-27T00:28:00;14.50;86.60
13600;DHT22;6871;51.34740610;4.31323160;2024-01-27T00:30:29;14.50;86.60
13600;DHT22;6871;51.34740610;4.31323160;2024-01-27T00:32:58;14.50;86.60
13600;DHT22;6871;51.34740610;4.31323160;2024-01-27T00:35:27;14.50;86.60
13600;DHT22;6871;51.34740610;4.31323160;2024-01-27T00:37:57;14.50;86.40
13600;DHT22;6871;51.34740610;4.31323160;2024-01-27T00:40:26;14.50;86.50
13600;DHT22;6871;51.34740610;4.31323160;2024-01-27T00:42:55;14.40;86.40
13600;DHT22;6871;51.34740610;4.31323160;2024-01-27T00:45:25;14.40;86.40
13600;DHT22;6871;51.34740610;4.31323160;2024-01-27T00:47:55;14.40;85.90
13600;DHT22;6871;51.34740610;4.31323160;2024-01-27T00:50:25;14.40;86.40
13600;DHT22;6871;51.34740610;4.31323160;2024-01-27T00:52:54;14.40;86.50
13600;DHT22;6871;51.34740610;4.31323160;2024-01-27T00:55:24;14.40;86.40
13600;DHT22;6871;51.34740610;4.31323160;2024-01-27T00:57:53;14.40;86.30
13600;DHT22;6871;51.34740610;4.31323160;2024-01-27T01:00:22;14.40;87.30
13600;DHT22;6871;51.34740610;4.31323160;2024-01-27T01:02:52;14.30;86.50
13600;DHT22;6871;51.34740610;4.31323160;2024-01-27T01:05:22;14.40;86.50
13600;DHT22;6871;51.34740610;4.31323160;2024-01-27T01:07:52;14.30;86.30
13600;DHT22;6871;51.34740610;4.31323160;2024-01-27T01:10:21;14.30;86.30
13600;DHT22;6871;51.34740610;4.31323160;2024-01-27T01:13:09;14.30;86.20
13600;DHT22;6871;51.34740610;4.31323160;2024-01-27T01:15:39;14.30;86.30
13600;DHT22;6871;51.34740610;4.31323160;2024-01-27T01:18:08;14.30;86.40
13600;DHT22;6871;51.34740610;4.31323160;2024-01-27T01:20:37;14.30;86.50
13600;DHT22;6871;51.34740610;4.31323160;2024-01-27T01:23:07;14.30;86.50
13600;DHT22;6871;51.34740610;4.31323160;2024-01-27T01:25:36;14.30;86.40
13600;DHT22;6871;51.34740610;4.31323160;2024-01-27T01:28:06;14.20;86.30
13600;DHT22;6871;51.34740610;4.31323160;2024-01-27T01:30:35;14.30;86.30
13600;DHT22;6871;51.34740610;4.31323160;2024-01-27T01:33:05;14.30;86.30
13600;DHT22;6871;51.34740610;4.31323160;2024-01-27T01:35:35;14.20;86.40
13600;DHT22;6871;51.34740610;4.31323160;2024-01-27T01:38:05;14.30;86.50
13600;DHT22;6871;51.34740610;4.31323160;2024-01-27T01:40:34;14.20;86.50
13600;DHT22;6871;51.34740610;4.31323160;2024-01-27T01:43:04;14.20;86.40
13600;DHT22;6871;51.34740610;4.31323160;2024-01-27T01:45:35;14.20;86.30
13600;DHT22;6871;51.34740610;4.31323160;2024-01-27T01:48:05;14.20;86.30
13600;DHT22;6871;51.34740610;4.31323160;2024-01-27T01:50:36;14.20;86.20
13600;DHT22;6871;51.34740610;4.31323160;2024-01-27T01:53:06;14.20;86.30
13600;DHT22;6871;51.34740610;4.31323160;2024-01-27T01:55:36;14.20;86.30
13600;DHT22;6871;51.34740610;4.31323160;2024-01-27T01:58:06;14.20;86.20
13600;DHT22;6871;51.34740610;4.31323160;2024-01-27T02:00:35;14.20;86.30
13600;DHT22;6871;51.34740610;4.31323160;2024-01-27T02:03:05;14.20;86.20
13600;DHT22;6871;51.34740610;4.31323160;2024-01-27T02:05:34;14.20;86.30
13600;DHT22;6871;51.34740610;4.31323160;2024-01-27T02:08:04;14.20;86.20
13600;DHT22;6871;51.34740610;4.31323160;2024-01-27T02:10:34;14.20;86.20
13600;DHT22;6871;51.34740610;4.31323160;2024-01-27T02:13:15;14.20;86.20
13600;DHT22;6871;51.34740610;4.31323160;2024-01-27T02:15:46;14.20;86.20
13600;DHT22;6871;51.34740610;4.31323160;2024-01-27T02:18:16;14.10;86.10
13600;DHT22;6871;51.34740610;4.31323160;2024-01-27T02:20:46;14.10;86.10
13600;DHT22;6871;51.34740610;4.31323160;2024-01-27T02:23:15;14.10;86.10
13600;DHT22;6871;51.34740610;4.31323160;2024-01-27T02:25:44;14.10;86.10
13600;DHT22;6871;51.34740610;4.31323160;2024-01-27T02:28:14;14.10;86.20
13600;DHT22;6871;51.34740610;4.31323160;2024-01-27T02:30:43;14.10;86.20
13600;DHT22;6871;51.34740610;4.31323160;2024-01-27T02:33:12;14.10;86.10
13600;DHT22;6871;51.34740610;4.31323160;2024-01-27T02:35:42;14.10;86.10
13600;DHT22;6871;51.34740610;4.31323160;2024-01-27T02:38:11;14.10;86.10
13600;DHT22;6871;51.34740610;4.31323160;2024-01-27T02:40:41;14.10;86.10
13600;DHT22;6871;51.34740610;4.31323160;2024-01-27T02:43:10;14.10;86.30
13600;DHT22;6871;51.34740610;4.31323160;2024-01-27T02:45:39;14.10;86.30
13600;DHT22;6871;51.34740610;4.31323160;2024-01-27T02:48:09;14.10;86.30
13600;DHT22;6871;51.34740610;4.31323160;2024-01-27T02:50:38;14.10;87.10
13600;DHT22;6871;51.34740610;4.31323160;2024-01-27T02:53:07;14.10;86.20
13600;DHT22;6871;51.34740610;4.31323160;2024-01-27T02:55:37;14.10;86.30
13600;DHT22;6871;51.34740610;4.31323160;2024-01-27T02:58:06;14.00;86.30
13600;DHT22;6871;51.34740610;4.31323160;2024-01-27T03:00:36;14.00;86.30
13600;DHT22;6871;51.34740610;4.31323160;2024-01-27T03:03:05;14.00;86.40
13600;DHT22;6871;51.34740610;4.31323160;2024-01-27T03:05:35;14.00;86.30
13600;DHT22;6871;51.34740610;4.31323160;2024-01-27T03:08:05;14.00;86.30
13600;DHT22;6871;51.34740610;4.31323160;2024-01-27T03:10:34;14.00;86.30
13600;DHT22;6871;51.34740610;4.31323160;2024-01-27T03:13:04;14.00;86.30
13600;DHT22;6871;51.34740610;4.31323160;2024-01-27T03:15:34;14.00;87.20
13600;DHT22;6871;51.34740610;4.31323160;2024-01-27T03:18:05;14.00;86.40
13600;DHT22;6871;51.34740610;4.31323160;2024-01-27T03:20:35;14.00;86.50
13600;DHT22;6871;51.34740610;4.31323160;2024-01-27T03:23:04;14.00;86.50
13600;DHT22;6871;51.34740610;4.31323160;2024-01-27T03:25:33;14.00;86.40
13600;DHT22;6871;51.34740610;4.31323160;2024-01-27T03:28:03;14.00;86.50
13600;DHT22;6871;51.34740610;4.31323160;2024-01-27T03:30:32;14.00;86.40
13600;DHT22;6871;51.34740610;4.31323160;2024-01-27T03:33:02;13.90;86.40
13600;DHT22;6871;51.34740610;4.31323160;2024-01-27T03:35:31;14.00;86.50
13600;DHT22;6871;51.34740610;4.31323160;2024-01-27T03:38:01;13.90;86.40
13600;DHT22;6871;51.34740610;4.31323160;2024-01-27T03:40:30;13.90;86.40
13600;DHT22;6871;51.34740610;4.31323160;2024-01-27T03:42:59;13.90;86.40
13600;DHT22;6871;51.34740610;4.31323160;2024-01-27T03:45:28;13.90;86.30
13600;DHT22;6871;51.34740610;4.31323160;2024-01-27T03:47:58;13.90;86.30
13600;DHT22;6871;51.34740610;4.31323160;2024-01-27T03:50:27;13.90;86.30
13600;DHT22;6871;51.34740610;4.31323160;2024-01-27T03:52:56;13.90;86.30
13600;DHT22;6871;51.34740610;4.31323160;2024-01-27T03:55:26;13.90;86.30
13600;DHT22;6871;51.34740610;4.31323160;2024-01-27T03:57:55;13.90;86.20
13600;DHT22;6871;51.34740610;4.31323160;2024-01-27T04:00:24;13.90;86.10
13600;DHT22;6871;51.34740610;4.31323160;2024-01-27T04:02:55;13.90;86.90
13600;DHT22;6871;51.34740610;4.31323160;2024-01-27T04:05:24;13.90;86.00
13600;DHT22;6871;51.34740610;4.31323160;2024-01-27T04:07:53;13.90;86.00
13600;DHT22;6871;51.34740610;4.31323160;2024-01-27T04:10:23;13.90;85.90
13600;DHT22;6871;51.34740610;4.31323160;2024-01-27T04:12:52;13.90;85.90
13600;DHT22;6871;51.34740610;4.31323160;2024-01-27T04:15:22;13.80;85.80
13600;DHT22;6871;51.34740610;4.31323160;2024-01-27T04:17:51;13.90;85.80
13600;DHT22;6871;51.34740610;4.31323160;2024-01-27T04:20:22;13.80;85.70
13600;DHT22;6871;51.34740610;4.31323160;2024-01-27T04:22:51;13.80;85.70
13600;DHT22;6871;51.34740610;4.31323160;2024-01-27T04:25:20;13.80;85.70
13600;DHT22;6871;51.34740610;4.31323160;2024-01-27T04:27:49;13.80;85.70
13600;DHT22;6871;51.34740610;4.31323160;2024-01-27T04:30:19;13.80;85.70
13600;DHT22;6871;51.34740610;4.31323160;2024-01-27T04:32:48;13.80;85.60
13600;DHT22;6871;51.34740610;4.31323160;2024-01-27T04:35:19;13.80;85.60
13600;DHT22;6871;51.34740610;4.31323160;2024-01-27T04:37:48;13.80;85.50
13600;DHT22;6871;51.34740610;4.31323160;2024-01-27T04:40:19;13.80;85.60
13600;DHT22;6871;51.34740610;4.31323160;2024-01-27T04:42:48;13.80;85.60
13600;DHT22;6871;51.34740610;4.31323160;2024-01-27T04:45:17;13.80;85.60
13600;DHT22;6871;51.34740610;4.31323160;2024-01-27T04:47:47;13.70;85.50
13600;DHT22;6871;51.34740610;4.31323160;2024-01-27T04:50:16;13.70;85.40
13600;DHT22;6871;51.34740610;4.31323160;2024-01-27T04:52:45;13.70;85.30
13600;DHT22;6871;51.34740610;4.31323160;2024-01-27T04:55:15;13.80;85.30
13600;DHT22;6871;51.34740610;4.31323160;2024-01-27T04:57:45;13.70;85.50
13600;DHT22;6871;51.34740610;4.31323160;2024-01-27T05:00:16;13.70;85.60
13600;DHT22;6871;51.34740610;4.31323160;2024-01-27T05:02:46;13.70;85.40
13600;DHT22;6871;51.34740610;4.31323160;2024-01-27T05:05:15;13.70;85.40
13600;DHT22;6871;51.34740610;4.31323160;2024-01-27T05:07:44;13.70;85.30
13600;DHT22;6871;51.34740610;4.31323160;2024-01-27T05:10:16;13.70;85.30
13600;DHT22;6871;51.34740610;4.31323160;2024-01-27T05:12:45;13.70;85.20
13600;DHT22;6871;51.34740610;4.31323160;2024-01-27T05:15:14;13.70;85.20
13600;DHT22;6871;51.34740610;4.31323160;2024-01-27T05:17:44;13.70;85.40
13600;DHT22;6871;51.34740610;4.31323160;2024-01-27T05:20:13;13.60;85.20
13600;DHT22;6871;51.34740610;4.31323160;2024-01-27T05:22:42;13.70;85.20
13600;DHT22;6871;51.34740610;4.31323160;2024-01-27T05:25:12;13.70;85.10
13600;DHT22;6871;51.34740610;4.31323160;2024-01-27T05:27:41;13.60;85.10
13600;DHT22;6871;51.34740610;4.31323160;2024-01-27T05:30:12;13.60;85.10
13600;DHT22;6871;51.34740610;4.31323160;2024-01-27T05:32:42;13.60;85.20
13600;DHT22;6871;51.34740610;4.31323160;2024-01-27T05:35:12;13.60;85.20
13600;DHT22;6871;51.34740610;4.31323160;2024-01-27T05:37:41;13.60;85.20
13600;DHT22;6871;51.34740610;4.31323160;2024-01-27T05:40:11;13.60;85.10
13600;DHT22;6871;51.34740610;4.31323160;2024-01-27T05:42:41;13.60;85.00
13600;DHT22;6871;51.34740610;4.31323160;2024-01-27T05:45:12;13.60;85.00
13600;DHT22;6871;51.34740610;4.31323160;2024-01-27T05:47:41;13.60;85.00
13600;DHT22;6871;51.34740610;4.31323160;2024-01-27T05:50:11;13.60;85.10
13600;DHT22;6871;51.34740610;4.31323160;2024-01-27T05:52:40;13.60;85.20
13600;DHT22;6871;51.34740610;4.31323160;2024-01-27T05:55:10;13.60;85.10
13600;DHT22;6871;51.34740610;4.31323160;2024-01-27T05:57:40;13.60;85.10
13600;DHT22;6871;51.34740610;4.31323160;2024-01-27T06:00:12;13.60;85.00
13600;DHT22;6871;51.34740610;4.31323160;2024-01-27T06:02:41;13.60;84.90
13600;DHT22;6871;51.34740610;4.31323160;2024-01-27T06:05:11;13.60;85.00
13600;DHT22;6871;51.34740610;4.31323160;2024-01-27T06:07:41;13.60;85.10
13600;DHT22;6871;51.34740610;4.31323160;2024-01-27T06:10:11;13.60;85.00
13600;DHT22;6871;51.34740610;4.31323160;2024-01-27T06:12:41;13.60;84.90
13600;DHT22;6871;51.34740610;4.31323160;2024-01-27T06:15:11;13.60;84.80
13600;DHT22;6871;51.34740610;4.31323160;2024-01-27T06:17:40;13.60;84.70
13600;DHT22;6871;51.34740610;4.31323160;2024-01-27T06:20:11;13.60;84.50
13600;DHT22;6871;51.34740610;4.31323160;2024-01-27T06:22:40;13.70;84.40
13600;DHT22;6871;51.34740610;4.31323160;2024-01-27T06:25:10;13.70;84.30
13600;DHT22;6871;51.34740610;4.31323160;2024-01-27T06:27:39;13.80;84.10
13600;DHT22;6871;51.34740610;4.31323160;2024-01-27T06:30:11;13.80;84.00
13600;DHT22;6871;51.34740610;4.31323160;2024-01-27T06:32:40;13.90;83.70
13600;DHT22;6871;51.34740610;4.31323160;2024-01-27T06:35:10;13.90;83.50
13600;DHT22;6871;51.34740610;4.31323160;2024-01-27T06:37:39;13.90;83.20
13600;DHT22;6871;51.34740610;4.31323160;2024-01-27T06:40:10;14.00;83.20
13600;DHT22;6871;51.34740610;4.31323160;2024-01-27T06:42:39;14.00;83.10
13600;DHT22;6871;51.34740610;4.31323160;2024-01-27T06:45:09;14.00;83.00
13600;DHT22;6871;51.34740610;4.31323160;2024-01-27T06:47:38;14.00;83.00
13600;DHT22;6871;51.34740610;4.31323160;2024-01-27T06:50:09;14.00;83.70
13600;DHT22;6871;51.34740610;4.31323160;2024-01-27T06:52:39;14.00;82.70
13600;DHT22;6871;51.34740610;4.31323160;2024-01-27T06:55:09;14.00;82.60
13600;DHT22;6871;51.34740610;4.31323160;2024-01-27T06:57:39;14.10;82.70
13600;DHT22;6871;51.34740610;4.31323160;2024-01-27T07:00:10;14.10;82.60
13600;DHT22;6871;51.34740610;4.31323160;2024-01-27T07:02:42;14.10;82.50
13600;DHT22;6871;51.34740610;4.31323160;2024-01-27T07:05:11;14.10;82.40
13600;DHT22;6871;51.34740610;4.31323160;2024-01-27T07:07:42;14.10;82.30
13600;DHT22;6871;51.34740610;4.31323160;2024-01-27T07:10:11;14.10;82.30
13600;DHT22;6871;51.34740610;4.31323160;2024-01-27T07:12:40;14.10;82.30
13600;DHT22;6871;51.34740610;4.31323160;2024-01-27T07:15:10;14.10;82.20
13600;DHT22;6871;51.34740610;4.31323160;2024-01-27T07:17:39;14.20;82.30
13600;DHT22;6871;51.34740610;4.31323160;2024-01-27T07:20:11;14.20;82.20
13600;DHT22;6871;51.34740610;4.31323160;2024-01-27T07:22:40;14.20;82.10
13600;DHT22;6871;51.34740610;4.31323160;2024-01-27T07:25:09;14.20;82.30
13600;DHT22;6871;51.34740610;4.31323160;2024-01-27T07:27:38;14.20;82.50
13600;DHT22;6871;51.34740610;4.31323160;2024-01-27T07:30:09;14.20;82.80
13600;DHT22;6871;51.34740610;4.31323160;2024-01-27T07:32:39;14.20;82.10
13600;DHT22;6871;51.34740610;4.31323160;2024-01-27T07:35:09;14.20;82.00
13600;DHT22;6871;51.34740610;4.31323160;2024-01-27T07:37:39;14.30;82.10
13600;DHT22;6871;51.34740610;4.31323160;2024-01-27T07:40:11;14.30;82.00
13600;DHT22;6871;51.34740610;4.31323160;2024-01-27T07:42:40;14.30;81.90
13600;DHT22;6871;51.34740610;4.31323160;2024-01-27T07:45:10;14.30;81.90
13600;DHT22;6871;51.34740610;4.31323160;2024-01-27T07:47:39;14.30;82.10
13600;DHT22;6871;51.34740610;4.31323160;2024-01-27T07:50:09;14.30;81.70
13600;DHT22;6871;51.34740610;4.31323160;2024-01-27T07:52:39;14.30;80.80
13600;DHT22;6871;51.34740610;4.31323160;2024-01-27T07:55:27;14.30;80.30
13600;DHT22;6871;51.34740610;4.31323160;2024-01-27T07:57:56;14.30;80.00
13600;DHT22;6871;51.34740610;4.31323160;2024-01-27T08:00:25;14.30;80.10
13600;DHT22;6871;51.34740610;4.31323160;2024-01-27T08:02:55;14.30;80.40
13600;DHT22;6871;51.34740610;4.31323160;2024-01-27T08:05:24;14.30;80.50
13600;DHT22;6871;51.34740610;4.31323160;2024-01-27T08:07:53;14.30;80.50
13600;DHT22;6871;51.34740610;4.31323160;2024-01-27T08:10:23;14.40;80.80
13600;DHT22;6871;51.34740610;4.31323160;2024-01-27T08:12:52;14.40;80.80
13600;DHT22;6871;51.34740610;4.31323160;2024-01-27T08:15:22;14.40;80.80
13600;DHT22;6871;51.34740610;4.31323160;2024-01-27T08:17:51;14.20;70.50
13600;DHT22;6871;51.34740610;4.31323160;2024-01-27T08:20:21;13.70;72.70
13600;DHT22;6871;51.34740610;4.31323160;2024-01-27T08:22:50;13.60;76.70
13600;DHT22;6871;51.34740610;4.31323160;2024-01-27T08:25:19;13.50;77.20
13600;DHT22;6871;51.34740610;4.31323160;2024-01-27T08:27:48;13.50;77.50
13600;DHT22;6871;51.34740610;4.31323160;2024-01-27T08:30:18;13.30;70.90
13600;DHT22;6871;51.34740610;4.31323160;2024-01-27T08:32:47;13.00;71.30
13600;DHT22;6871;51.34740610;4.31323160;2024-01-27T08:35:17;12.60;71.90
13600;DHT22;6871;51.34740610;4.31323160;2024-01-27T08:37:46;12.20;73.90
13600;DHT22;6871;51.34740610;4.31323160;2024-01-27T08:40:16;11.70;77.40
13600;DHT22;6871;51.34740610;4.31323160;2024-01-27T08:42:45;11.40;78.30
13600;DHT22;6871;51.34740610;4.31323160;2024-01-27T08:45:15;11.10;78.80
13600;DHT22;6871;51.34740610;4.31323160;2024-01-27T08:47:44;11.00;79.30
13600;DHT22;6871;51.34740610;4.31323160;2024-01-27T08:50:14;10.90;80.00
13600;DHT22;6871;51.34740610;4.31323160;2024-01-27T08:52:43;10.80;79.60
13600;DHT22;6871;51.34740610;4.31323160;2024-01-27T08:55:14;10.70;80.40
13600;DHT22;6871;51.34740610;4.31323160;2024-01-27T08:57:46;10.60;81.70
13600;DHT22;6871;51.34740610;4.31323160;2024-01-27T09:00:16;10.60;84.70
13600;DHT22;6871;51.34740610;4.31323160;2024-01-27T09:02:46;10.90;85.70
13600;DHT22;6871;51.34740610;4.31323160;2024-01-27T09:05:15;11.20;85.10
13600;DHT22;6871;51.34740610;4.31323160;2024-01-27T09:07:45;11.50;84.20
13600;DHT22;6871;51.34740610;4.31323160;2024-01-27T09:10:14;11.90;83.50
13600;DHT22;6871;51.34740610;4.31323160;2024-01-27T09:12:43;12.10;82.80
13600;DHT22;6871;51.34740610;4.31323160;2024-01-27T09:15:13;12.40;82.20
13600;DHT22;6871;51.34740610;4.31323160;2024-01-27T09:17:42;12.70;81.80
13600;DHT22;6871;51.34740610;4.31323160;2024-01-27T09:20:12;12.90;81.50
13600;DHT22;6871;51.34740610;4.31323160;2024-01-27T09:22:42;13.10;81.90
13600;DHT22;6871;51.34740610;4.31323160;2024-01-27T09:25:12;13.30;80.80
13600;DHT22;6871;51.34740610;4.31323160;2024-01-27T09:27:42;13.40;80.50
13600;DHT22;6871;51.34740610;4.31323160;2024-01-27T09:30:13;13.60;80.30
13600;DHT22;6871;51.34740610;4.31323160;2024-01-27T09:32:42;13.70;80.10
13600;DHT22;6871;51.34740610;4.31323160;2024-01-27T09:35:12;13.90;80.00
13600;DHT22;6871;51.34740610;4.31323160;2024-01-27T09:37:41;14.00;79.80
13600;DHT22;6871;51.34740610;4.31323160;2024-01-27T09:40:13;14.10;79.80
13600;DHT22;6871;51.34740610;4.31323160;2024-01-27T09:42:46;14.20;79.80
13600;DHT22;6871;51.34740610;4.31323160;2024-01-27T09:45:15;14.20;79.70
13600;DHT22;6871;51.34740610;4.31323160;2024-01-27T09:47:46;14.30;79.60
13600;DHT22;6871;51.34740610;4.31323160;2024-01-27T09:50:17;14.30;79.50
13600;DHT22;6871;51.34740610;4.31323160;2024-01-27T09:52:47;14.40;79.50
13600;DHT22;6871;51.34740610;4.31323160;2024-01-27T09:55:16;14.40;79.60
13600;DHT22;6871;51.34740610;4.31323160;2024-01-27T09:57:46;14.50;79.60
13600;DHT22;6871;51.34740610;4.31323160;2024-01-27T10:00:16;14.50;79.60
13600;DHT22;6871;51.34740610;4.31323160;2024-01-27T10:02:46;14.50;79.60
13600;DHT22;6871;51.34740610;4.31323160;2024-01-27T10:05:17;14.60;79.70
13600;DHT22;6871;51.34740610;4.31323160;2024-01-27T10:07:47;14.60;79.70
13600;DHT22;6871;51.34740610;4.31323160;2024-01-27T10:10:17;14.60;79.60
13600;DHT22;6871;51.34740610;4.31323160;2024-01-27T10:12:47;14.70;77.50
13600;DHT22;6871;51.34740610;4.31323160;2024-01-27T10:15:22;14.50;77.00
13600;DHT22;6871;51.34740610;4.31323160;2024-01-27T10:17:51;14.40;78.90
13600;DHT22;6871;51.34740610;4.31323160;2024-01-27T10:20:20;14.40;79.40
13600;DHT22;6871;51.34740610;4.31323160;2024-01-27T10:22:50;14.40;79.50
13600;DHT22;6871;51.34740610;4.31323160;2024-01-27T10:25:19;14.50;79.50
13600;DHT22;6871;51.34740610;4.31323160;2024-01-27T10:27:48;14.50;79.40
13600;DHT22;6871;51.34740610;4.31323160;2024-01-27T10:30:19;14.60;79.50
13600;DHT22;6871;51.34740610;4.31323160;2024-01-27T10:32:56;14.60;79.50
13600;DHT22;6871;51.34740610;4.31323160;2024-01-27T10:35:26;14.60;79.50
13600;DHT22;6871;51.34740610;4.31323160;2024-01-27T10:37:56;14.70;79.70
13600;DHT22;6871;51.34740610;4.31323160;2024-01-27T10:40:25;14.70;79.80
13600;DHT22;6871;51.34740610;4.31323160;2024-01-27T10:43:01;14.70;79.80
13600;DHT22;6871;51.34740610;4.31323160;2024-01-27T10:45:34;14.70;79.80
13600;DHT22;6871;51.34740610;4.31323160;2024-01-27T10:48:06;14.80;80.00
13600;DHT22;6871;51.34740610;4.31323160;2024-01-27T10:50:39;14.80;80.10
13600;DHT22;6871;51.34740610;4.31323160;2024-01-27T10:53:14;14.80;80.20
13600;DHT22;6871;51.34740610;4.31323160;2024-01-27T10:55:45;14.80;80.20
13600;DHT22;6871;51.34740610;4.31323160;2024-01-27T10:58:15;14.80;80.30
13600;DHT22;6871;51.34740610;4.31323160;2024-01-27T11:00:46;14.80;80.40
13600;DHT22;6871;51.34740610;4.31323160;2024-01-27T11:03:18;14.80;80.50
13600;DHT22;6871;51.34740610;4.31323160;2024-01-27T11:05:49;14.80;80.50
13600;DHT22;6871;51.34740610;4.31323160;2024-01-27T11:08:19;14.80;80.60
13600;DHT22;6871;51.34740610;4.31323160;2024-01-27T11:10:50;14.80;80.60
13600;DHT22;6871;51.34740610;4.31323160;2024-01-27T11:13:20;14.80;80.70
13600;DHT22;6871;51.34740610;4.31323160;2024-01-27T11:15:53;14.80;80.60
13600;DHT22;6871;51.34740610;4.31323160;2024-01-27T11:18:22;14.90;80.60
13600;DHT22;6871;51.34740610;4.31323160;2024-01-27T11:20:55;14.90;80.60
13600;DHT22;6871;51.34740610;4.31323160;2024-01-27T11:23:33;14.90;80.60
13600;DHT22;6871;51.34740610;4.31323160;2024-01-27T11:26:07;14.90;80.60
13600;DHT22;6871;51.34740610;4.31323160;2024-01-27T11:28:37;14.90;80.70
13600;DHT22;6871;51.34740610;4.31323160;2024-01-27T11:31:07;14.90;80.70
13600;DHT22;6871;51.34740610;4.31323160;2024-01-27T11:33:43;14.90;80.90
13600;DHT22;6871;51.34740610;4.31323160;2024-01-27T11:36:20;15.00;80.90
13600;DHT22;6871;51.34740610;4.31323160;2024-01-27T11:38:50;14.90;80.90
13600;DHT22;6871;51.34740610;4.31323160;2024-01-27T11:41:30;14.90;81.00
13600;DHT22;6871;51.34740610;4.31323160;2024-01-27T11:43:59;15.00;81.10
13600;DHT22;6871;51.34740610;4.31323160;2024-01-27T11:46:29;15.00;81.20
13600;DHT22;6871;51.34740610;4.31323160;2024-01-27T11:48:58;15.00;81.30
13600;DHT22;6871;51.34740610;4.31323160;2024-01-27T11:51:28;15.00;81.40
13600;DHT22;6871;51.34740610;4.31323160;2024-01-27T11:53:57;15.00;81.60
13600;DHT22;6871;51.34740610;4.31323160;2024-01-27T11:56:27;15.00;81.70
13600;DHT22;6871;51.34740610;4.31323160;2024-01-27T11:58:56;15.00;81.80
13600;DHT22;6871;51.34740610;4.31323160;2024-01-27T12:01:25;15.00;81.90
13600;DHT22;6871;51.34740610;4.31323160;2024-01-27T12:03:55;15.00;82.10
13600;DHT22;6871;51.34740610;4.31323160;2024-01-27T12:06:25;15.00;82.20
13600;DHT22;6871;51.34740610;4.31323160;2024-01-27T12:08:57;15.00;82.30
13600;DHT22;6871;51.34740610;4.31323160;2024-01-27T12:11:27;15.00;82.30
13600;DHT22;6871;51.34740610;4.31323160;2024-01-27T12:13:58;15.00;82.50
13600;DHT22;6871;51.34740610;4.31323160;2024-01-27T12:16:29;15.00;82.60
13600;DHT22;6871;51.34740610;4.31323160;2024-01-27T12:18:59;14.90;82.70
13600;DHT22;6871;51.34740610;4.31323160;2024-01-27T12:21:28;14.90;82.80
13600;DHT22;6871;51.34740610;4.31323160;2024-01-27T12:23:58;14.90;82.90
13600;DHT22;6871;51.34740610;4.31323160;2024-01-27T12:26:29;14.90;83.00
13600;DHT22;6871;51.34740610;4.31323160;2024-01-27T12:28:59;14.90;83.20
13600;DHT22;6871;51.34740610;4.31323160;2024-01-27T12:31:29;14.80;83.40
13600;DHT22;6871;51.34740610;4.31323160;2024-01-27T12:33:58;14.80;83.70
13600;DHT22;6871;51.34740610;4.31323160;2024-01-27T12:36:28;14.80;84.00
13600;DHT22;6871;51.34740610;4.31323160;2024-01-27T12:38:59;14.80;84.10
13600;DHT22;6871;51.34740610;4.31323160;2024-01-27T12:41:28;14.80;84.30
13600;DHT22;6871;51.34740610;4.31323160;2024-01-27T12:43:58;14.80;84.50
13600;DHT22;6871;51.34740610;4.31323160;2024-01-27T12:46:27;14.70;84.60
13600;DHT22;6871;51.34740610;4.31323160;2024-01-27T12:48:57;14.70;85.00
13600;DHT22;6871;51.34740610;4.31323160;2024-01-27T12:51:26;14.60;83.90
13600;DHT22;6871;51.34740610;4.31323160;2024-01-27T12:53:55;14.60;84.50
13600;DHT22;6871;51.34740610;4.31323160;2024-01-27T12:56:26;14.60;84.40
13600;DHT22;6871;51.34740610;4.31323160;2024-01-27T12:58:55;14.60;86.20
13600;DHT22;6871;51.34740610;4.31323160;2024-01-27T13:01:24;14.70;85.80
13600;DHT22;6871;51.34740610;4.31323160;2024-01-27T13:03:56;14.80;85.90
13600;DHT22;6871;51.34740610;4.31323160;2024-01-27T13:06:25;14.80;86.00
13600;DHT22;6871;51.34740610;4.31323160;2024-01-27T13:08:54;14.80;86.50
13600;DHT22;6871;51.34740610;4.31323160;2024-01-27T13:11:24;14.80;87.80
13600;DHT22;6871;51.34740610;4.31323160;2024-01-27T13:13:53;14.80;88.10
13600;DHT22;6871;51.34740610;4.31323160;2024-01-27T13:16:22;14.70;88.60
13600;DHT22;6871;51.34740610;4.31323160;2024-01-27T13:18:51;14.80;87.20
13600;DHT22;6871;51.34740610;4.31323160;2024-01-27T13:21:21;14.70;86.80
13600;DHT22;6871;51.34740610;4.31323160;2024-01-27T13:23:50;14.70;86.70
13600;DHT22;6871;51.34740610;4.31323160;2024-01-27T13:26:20;14.70;86.50
13600;DHT22;6871;51.34740610;4.31323160;2024-01-27T13:28:49;14.70;86.50
13600;DHT22;6871;51.34740610;4.31323160;2024-01-27T13:31:18;14.70;86.50
13600;DHT22;6871;51.34740610;4.31323160;2024-01-27T13:33:47;14.70;86.50
13600;DHT22;6871;51.34740610;4.31323160;2024-01-27T13:36:17;14.70;86.50
13600;DHT22;6871;51.34740610;4.31323160;2024-01-27T13:38:47;14.60;86.40
13600;DHT22;6871;51.34740610;4.31323160;2024-01-27T13:41:16;14.60;86.50
13600;DHT22;6871;51.34740610;4.31323160;2024-01-27T13:43:45;14.60;86.50
13600;DHT22;6871;51.34740610;4.31323160;2024-01-27T13:46:15;14.60;86.60
13600;DHT22;6871;51.34740610;4.31323160;2024-01-27T13:48:45;14.60;86.70